Time;durP1;ratioP1;P1;durP2;ratioP2;P2;SDS_P1;SDS_P2;PMS_P1;PMS_P2;Temp;Humidity;BMP_temperature;BMP_pressure;BME280_temperature;BME280_humidity;BME280_pressure;Samples;Min_cycle;Max_cycle;Signal;HPM_P1;HPM_P2
2022/07/15 00:02:08;;;;;;;6.47;6.03;;;24.10;47.90;;;;;;5019809;28;20653;-86
2022/07/15 00:04:35;;;;;;;6.78;6.20;;;24.10;47.90;;;;;;5019725;28;20182;-86
2022/07/15 00:07:01;;;;;;;6.90;6.40;;;24.10;48.20;;;;;;5002949;28;20185;-86
2022/07/15 00:12:12;;;;;;;6.18;5.78;;;24.10;48.30;;;;;;5005617;28;20232;-86
2022/07/15 00:14:39;;;;;;;6.57;6.20;;;23.90;48.70;;;;;;5011993;28;20177;-86
2022/07/15 00:17:06;;;;;;;6.63;6.22;;;23.90;48.70;;;;;;5008299;28;20200;-87
2022/07/15 00:19:33;;;;;;;6.50;6.03;;;24.00;48.60;;;;;;5007223;28;20184;-86
2022/07/15 00:21:59;;;;;;;6.63;6.13;;;24.00;48.60;;;;;;5014366;28;20269;-87
2022/07/15 00:24:24;;;;;;;6.93;6.43;;;23.90;49.20;;;;;;5019094;28;20205;-87
2022/07/15 00:26:50;;;;;;;6.28;5.90;;;23.80;48.80;;;;;;5005470;28;20201;-86
2022/07/15 00:29:16;;;;;;;7.03;6.53;;;23.70;49.40;;;;;;5013721;28;20183;-87
2022/07/15 00:31:42;;;;;;;7.07;6.45;;;23.80;49.20;;;;;;5003594;28;20198;-86
2022/07/15 00:34:07;;;;;;;6.93;6.40;;;23.70;49.60;;;;;;5003166;28;20189;-86
2022/07/15 00:36:33;;;;;;;6.50;6.10;;;23.60;49.80;;;;;;5001267;28;20240;-87
2022/07/15 00:38:59;;;;;;;6.85;6.38;;;23.50;49.70;;;;;;4997120;28;20761;-86
2022/07/15 00:41:24;;;;;;;6.80;6.25;;;23.50;49.40;;;;;;4998937;28;20187;-87
2022/07/15 00:43:50;;;;;;;6.80;6.30;;;23.50;49.70;;;;;;5013943;28;20251;-86
2022/07/15 00:46:18;;;;;;;6.40;5.93;;;23.40;50.00;;;;;;4996888;28;20213;-86
2022/07/15 00:48:46;;;;;;;7.20;6.60;;;23.30;50.20;;;;;;5005880;28;20247;-86
2022/07/15 00:51:12;;;;;;;6.50;6.10;;;23.30;50.30;;;;;;5014870;28;20205;-85
2022/07/15 00:53:39;;;;;;;7.20;6.80;;;23.10;51.20;;;;;;5018542;28;20201;-86
2022/07/15 00:56:08;;;;;;;6.78;6.20;;;23.10;51.20;;;;;;5017010;28;20240;-86
2022/07/15 00:58:37;;;;;;;6.47;6.07;;;23.00;51.40;;;;;;5000712;28;20231;-86
2022/07/15 01:01:04;;;;;;;6.72;6.32;;;22.80;51.90;;;;;;5000193;28;20183;-86
2022/07/15 01:03:31;;;;;;;7.25;6.80;;;22.80;51.60;;;;;;5003481;28;20646;-87
2022/07/15 01:05:58;;;;;;;6.95;6.38;;;22.60;53.20;;;;;;5009679;28;20206;-87
2022/07/15 01:08:24;;;;;;;7.10;6.50;;;22.40;54.00;;;;;;5015690;28;20194;-87
2022/07/15 01:10:53;;;;;;;6.03;5.53;;;22.30;53.90;;;;;;5033485;28;20186;-87
2022/07/15 01:13:20;;;;;;;6.88;6.25;;;22.40;53.40;;;;;;5022895;28;20188;-86
2022/07/15 01:15:46;;;;;;;6.57;5.97;;;22.60;52.80;;;;;;5018921;28;20596;-85
2022/07/15 01:18:12;;;;;;;6.45;6.03;;;22.60;52.70;;;;;;5015005;28;20189;-86
2022/07/15 01:20:48;;;;;;;6.45;6.05;;;22.60;52.60;;;;;;5019437;28;20206;-86
2022/07/15 01:23:15;;;;;;;5.70;5.38;;;22.70;52.80;;;;;;5020107;28;20208;-86
2022/07/15 01:25:41;;;;;;;7.20;6.60;;;22.70;52.80;;;;;;5018612;28;20213;-86
2022/07/15 01:28:08;;;;;;;7.43;6.05;;;22.60;52.90;;;;;;5023776;28;20242;-86
2022/07/15 01:30:34;;;;;;;6.57;6.07;;;22.40;53.60;;;;;;5015903;28;20280;-87
2022/07/15 01:33:00;;;;;;;6.35;5.85;;;22.40;54.10;;;;;;5020137;28;20677;-86
2022/07/15 01:35:28;;;;;;;5.95;5.40;;;22.30;53.70;;;;;;5021453;28;20249;-86
2022/07/15 01:37:53;;;;;;;5.88;5.38;;;22.30;54.70;;;;;;5016172;28;20177;-87
2022/07/15 01:40:19;;;;;;;6.18;5.68;;;22.20;54.70;;;;;;5010924;28;20196;-85
2022/07/15 01:42:45;;;;;;;6.78;6.28;;;22.20;54.70;;;;;;5018723;28;20287;-85
2022/07/15 01:45:11;;;;;;;6.20;5.70;;;22.10;54.60;;;;;;5016642;28;20272;-86
2022/07/15 01:47:44;;;;;;;7.03;5.53;;;22.00;55.50;;;;;;5012444;28;20177;-86
2022/07/15 01:50:10;;;;;;;6.30;5.82;;;22.00;55.90;;;;;;5004584;28;20182;-85
2022/07/15 01:52:36;;;;;;;6.07;5.47;;;22.00;55.40;;;;;;5012207;28;20322;-85
2022/07/15 01:55:06;;;;;;;6.40;5.95;;;21.90;55.70;;;;;;4985711;28;20238;-86
2022/07/15 01:57:31;;;;;;;5.72;5.38;;;22.00;55.10;;;;;;5007208;28;20185;-86
2022/07/15 01:59:57;;;;;;;6.80;6.22;;;22.00;55.80;;;;;;5008251;28;20598;-85
2022/07/15 02:02:23;;;;;;;6.18;5.60;;;22.00;55.60;;;;;;4992571;28;20285;-86
2022/07/15 02:04:49;;;;;;;6.97;6.38;;;21.90;55.50;;;;;;4991481;28;20178;-85
2022/07/15 02:07:18;;;;;;;6.03;5.53;;;21.90;55.70;;;;;;4986263;28;20254;-85
2022/07/15 02:09:43;;;;;;;6.30;5.80;;;21.90;54.90;;;;;;5016024;28;20182;-85
2022/07/15 02:12:09;;;;;;;5.68;5.28;;;21.70;55.50;;;;;;4987359;28;20181;-85
2022/07/15 02:14:35;;;;;;;6.13;5.72;;;21.60;56.80;;;;;;5011436;28;20186;-85
2022/07/15 02:17:02;;;;;;;6.38;5.82;;;21.50;56.90;;;;;;5013634;28;20217;-84
2022/07/15 02:19:27;;;;;;;6.65;6.15;;;21.40;57.60;;;;;;5006455;28;20191;-85
2022/07/15 02:21:53;;;;;;;6.95;6.43;;;21.40;57.00;;;;;;5004118;28;20182;-85
2022/07/15 02:24:19;;;;;;;6.88;6.28;;;21.30;57.60;;;;;;4988118;28;20246;-86
2022/07/15 02:26:51;;;;;;;6.38;5.80;;;21.10;58.30;;;;;;5006792;28;20208;-86
2022/07/15 02:29:17;;;;;;;7.05;6.55;;;21.10;58.50;;;;;;4991909;28;20195;-85
2022/07/15 02:31:43;;;;;;;7.80;6.20;;;21.20;57.20;;;;;;5015294;28;20216;-86
2022/07/15 02:34:09;;;;;;;6.53;6.13;;;21.30;58.50;;;;;;4993564;28;20207;-85
2022/07/15 02:36:35;;;;;;;8.52;6.05;;;21.30;57.50;;;;;;4993650;28;20747;-87
2022/07/15 02:39:02;;;;;;;6.32;5.70;;;21.20;57.60;;;;;;5014991;28;20191;-86
2022/07/15 02:41:28;;;;;;;9.45;6.13;;;21.40;57.40;;;;;;5000602;28;20178;-85
2022/07/15 02:43:54;;;;;;;6.85;6.15;;;21.40;57.00;;;;;;5003909;28;20184;-85
2022/07/15 02:46:20;;;;;;;6.25;5.72;;;21.30;57.40;;;;;;4992997;28;20219;-85
2022/07/15 02:48:46;;;;;;;6.30;5.90;;;21.20;57.40;;;;;;4993557;28;20208;-86
2022/07/15 02:51:12;;;;;;;6.30;5.90;;;21.00;58.10;;;;;;5011124;28;20227;-85
2022/07/15 02:53:39;;;;;;;6.72;6.13;;;21.00;58.70;;;;;;5013327;28;20180;-85
2022/07/15 02:56:05;;;;;;;6.03;5.72;;;21.00;58.60;;;;;;5007577;28;20215;-86
2022/07/15 02:58:31;;;;;;;6.38;5.80;;;21.00;58.50;;;;;;5008852;28;20212;-85
2022/07/15 03:00:58;;;;;;;5.97;5.57;;;20.80;59.20;;;;;;5011517;28;20212;-85
2022/07/15 03:03:24;;;;;;;6.00;5.50;;;20.70;59.20;;;;;;4992253;28;20192;-85
2022/07/15 03:05:49;;;;;;;6.20;5.80;;;20.70;60.00;;;;;;5006855;28;20278;-86
2022/07/15 03:08:16;;;;;;;6.57;6.00;;;20.70;59.80;;;;;;5011162;28;20190;-86
2022/07/15 03:10:42;;;;;;;6.40;5.78;;;20.60;59.60;;;;;;5013936;28;20190;-86
2022/07/15 03:13:08;;;;;;;7.88;6.00;;;20.30;60.90;;;;;;5016958;28;20205;-85
2022/07/15 03:15:34;;;;;;;6.65;6.10;;;20.00;61.00;;;;;;5010470;28;20226;-85
2022/07/15 03:17:59;;;;;;;6.68;6.18;;;19.70;61.70;;;;;;4986414;28;20193;-85
2022/07/15 03:20:25;;;;;;;6.40;5.90;;;19.70;61.50;;;;;;5005588;28;20196;-86
2022/07/15 03:22:51;;;;;;;6.60;5.65;;;19.80;59.00;;;;;;4997305;28;20194;-85
2022/07/15 03:25:17;;;;;;;6.50;6.10;;;19.90;58.90;;;;;;5009760;28;20222;-85
2022/07/15 03:27:43;;;;;;;6.18;5.60;;;20.20;58.60;;;;;;5015754;28;20216;-85
2022/07/15 03:30:08;;;;;;;6.05;5.65;;;20.20;56.40;;;;;;5011000;28;20669;-86
2022/07/15 03:32:34;;;;;;;5.90;5.38;;;20.20;56.90;;;;;;5015363;28;20198;-85
2022/07/15 03:35:00;;;;;;;6.20;5.78;;;20.20;57.90;;;;;;4981090;28;20482;-85
2022/07/15 03:37:26;;;;;;;6.53;5.93;;;20.20;57.50;;;;;;4997402;28;20199;-85
2022/07/15 03:39:52;;;;;;;6.57;6.00;;;20.00;57.10;;;;;;4992017;28;20190;-86
2022/07/15 03:42:17;;;;;;;6.88;5.43;;;20.00;57.90;;;;;;5011148;28;20178;-86
2022/07/15 03:44:43;;;;;;;7.05;5.75;;;20.10;56.40;;;;;;4986279;28;20194;-86
2022/07/15 03:47:09;;;;;;;6.57;5.85;;;20.20;57.00;;;;;;5015269;28;20190;-86
2022/07/15 03:49:34;;;;;;;6.63;5.97;;;20.30;57.20;;;;;;5000294;28;20221;-86
2022/07/15 03:52:00;;;;;;;5.53;5.10;;;20.30;56.40;;;;;;5013957;28;20227;-86
2022/07/15 03:54:26;;;;;;;6.40;5.65;;;20.30;55.90;;;;;;4994922;28;20199;-87
2022/07/15 03:56:52;;;;;;;7.05;5.75;;;20.20;55.60;;;;;;5019320;28;20218;-82
2022/07/15 03:59:20;;;;;;;5.90;5.43;;;20.20;55.80;;;;;;5038618;28;20232;-85
2022/07/15 04:01:47;;;;;;;6.72;5.80;;;20.30;56.40;;;;;;5017326;28;20207;-87
2022/07/15 04:04:13;;;;;;;5.90;5.40;;;20.20;56.10;;;;;;5007905;28;20185;-86
2022/07/15 04:06:39;;;;;;;9.63;5.95;;;20.20;56.80;;;;;;5009126;28;20277;-87
2022/07/15 04:09:04;;;;;;;6.03;5.53;;;20.20;55.70;;;;;;5013584;28;20468;-87
2022/07/15 04:11:30;;;;;;;6.22;5.60;;;20.20;55.50;;;;;;5008722;28;20190;-88
2022/07/15 04:13:56;;;;;;;6.45;5.85;;;20.10;56.30;;;;;;5009576;28;20292;-86
2022/07/15 04:16:21;;;;;;;5.82;5.40;;;20.20;57.90;;;;;;5010745;28;20218;-86
2022/07/15 04:18:47;;;;;;;7.72;5.97;;;20.30;57.50;;;;;;5004086;28;20198;-86
2022/07/15 04:21:13;;;;;;;6.00;5.55;;;20.20;55.80;;;;;;4993987;28;20190;-87
2022/07/15 04:23:39;;;;;;;6.38;5.47;;;20.00;56.10;;;;;;5017189;28;20178;-86
2022/07/15 04:26:05;;;;;;;6.68;5.72;;;19.90;56.80;;;;;;5005120;28;20210;-87
2022/07/15 04:28:31;;;;;;;9.05;5.72;;;19.90;56.60;;;;;;5009089;28;20843;-86
2022/07/15 04:30:57;;;;;;;6.50;5.90;;;19.80;57.30;;;;;;5016089;28;20230;-87
2022/07/15 04:33:23;;;;;;;6.57;6.00;;;19.90;58.10;;;;;;5023148;28;20216;-86
2022/07/15 04:35:49;;;;;;;6.75;5.63;;;20.00;58.00;;;;;;5018597;28;20209;-86
2022/07/15 04:38:14;;;;;;;6.40;5.75;;;20.20;57.40;;;;;;4995384;28;20199;-87
2022/07/15 04:40:40;;;;;;;5.93;5.43;;;20.20;57.40;;;;;;5023231;28;20192;-86
2022/07/15 04:43:06;;;;;;;6.20;5.60;;;20.30;57.90;;;;;;5020213;28;20243;-86
2022/07/15 04:45:33;;;;;;;6.25;5.70;;;20.40;57.80;;;;;;5017837;28;20230;-85
2022/07/15 04:47:58;;;;;;;6.13;5.63;;;20.50;56.90;;;;;;5021682;28;20289;-86
2022/07/15 04:53:08;;;;;;;6.20;5.63;;;20.30;57.10;;;;;;5008255;28;20205;-86
2022/07/15 04:55:34;;;;;;;6.28;5.68;;;20.40;57.40;;;;;;5007642;28;20210;-85
2022/07/15 04:58:00;;;;;;;8.25;5.88;;;20.50;56.90;;;;;;5000632;28;20586;-87
2022/07/15 05:00:26;;;;;;;6.85;6.15;;;20.50;56.90;;;;;;5000967;28;20245;-86
2022/07/15 05:02:51;;;;;;;5.97;5.40;;;20.50;56.80;;;;;;5014845;28;20240;-86
2022/07/15 05:05:18;;;;;;;6.53;5.88;;;20.30;57.40;;;;;;4997520;28;20207;-86
2022/07/15 05:07:45;;;;;;;6.70;6.00;;;20.40;57.50;;;;;;5005838;28;20187;-88
2022/07/15 05:10:11;;;;;;;7.15;5.80;;;20.30;57.70;;;;;;4984479;28;20187;-86
2022/07/15 05:12:37;;;;;;;6.32;5.63;;;20.40;58.70;;;;;;5008340;28;20305;-85
2022/07/15 05:15:04;;;;;;;6.22;5.80;;;20.50;58.00;;;;;;5013697;28;20215;-85
2022/07/15 05:17:29;;;;;;;6.95;6.32;;;20.60;57.20;;;;;;5013660;28;20306;-87
2022/07/15 05:19:56;;;;;;;6.45;5.82;;;20.60;57.30;;;;;;5017610;28;20211;-85
2022/07/15 05:22:22;;;;;;;6.93;5.78;;;20.70;56.90;;;;;;4993762;28;20203;-86
2022/07/15 05:24:48;;;;;;;5.97;5.53;;;20.70;56.80;;;;;;5002249;28;20189;-85
2022/07/15 05:27:14;;;;;;;5.70;5.30;;;20.70;57.30;;;;;;5010311;28;20211;-86
2022/07/15 05:29:39;;;;;;;6.30;5.70;;;20.50;57.60;;;;;;4999124;28;20190;-86
2022/07/15 05:32:06;;;;;;;5.65;5.22;;;20.50;57.90;;;;;;5007754;28;20237;-85
2022/07/15 05:34:32;;;;;;;7.20;5.40;;;20.30;57.30;;;;;;5014909;28;20178;-86
2022/07/15 05:36:57;;;;;;;6.13;5.53;;;20.40;57.20;;;;;;5009152;28;20202;-87
2022/07/15 05:39:24;;;;;;;5.72;5.22;;;20.50;56.10;;;;;;5008018;28;20228;-87
2022/07/15 05:41:49;;;;;;;5.65;5.25;;;20.40;54.80;;;;;;4999202;28;20447;-87
2022/07/15 05:44:15;;;;;;;5.95;5.25;;;20.40;55.20;;;;;;4991015;28;20193;-87
2022/07/15 05:46:41;;;;;;;6.55;5.30;;;20.40;54.90;;;;;;5008276;28;20222;-87
2022/07/15 05:49:07;;;;;;;6.50;5.65;;;20.40;55.10;;;;;;5006002;28;20193;-87
2022/07/15 05:51:33;;;;;;;7.25;5.80;;;20.50;55.00;;;;;;5008997;28;20249;-85
2022/07/15 05:53:59;;;;;;;7.65;5.55;;;20.50;55.00;;;;;;4992762;28;20185;-87
2022/07/15 05:56:25;;;;;;;15.30;6.28;;;20.50;54.30;;;;;;5010467;28;20578;-86
2022/07/15 05:58:51;;;;;;;7.78;5.50;;;20.40;54.20;;;;;;5011568;28;20212;-86
2022/07/15 06:01:16;;;;;;;5.65;5.15;;;20.30;54.70;;;;;;5006829;28;20205;-85
2022/07/15 06:03:42;;;;;;;5.85;4.75;;;20.40;54.20;;;;;;5011390;28;20202;-85
2022/07/15 06:06:08;;;;;;;6.47;5.43;;;20.40;54.00;;;;;;5006714;28;20238;-86
2022/07/15 06:08:35;;;;;;;5.72;4.90;;;20.50;54.70;;;;;;5003356;28;20177;-86
2022/07/15 06:11:00;;;;;;;6.45;5.35;;;20.50;53.70;;;;;;5010880;28;20212;-86
2022/07/15 06:13:26;;;;;;;5.38;4.90;;;20.50;53.60;;;;;;4981778;28;20659;-86
2022/07/15 06:15:52;;;;;;;6.47;5.10;;;20.50;54.10;;;;;;5002816;28;20214;-86
2022/07/15 06:18:19;;;;;;;5.80;5.22;;;20.50;54.50;;;;;;5001860;28;20228;-87
2022/07/15 06:20:44;;;;;;;5.93;5.10;;;20.60;53.40;;;;;;4996769;28;20220;-87
2022/07/15 06:23:13;;;;;;;8.15;5.53;;;20.50;53.50;;;;;;5014611;28;20212;-85
2022/07/15 06:25:39;;;;;;;7.65;5.47;;;20.50;53.60;;;;;;5007511;28;20202;-85
2022/07/15 06:28:04;;;;;;;7.25;5.70;;;20.50;53.30;;;;;;4989585;28;20277;-86
2022/07/15 06:30:33;;;;;;;5.88;5.00;;;20.50;53.80;;;;;;5002149;28;20642;-85
2022/07/15 06:32:59;;;;;;;6.20;5.60;;;20.70;53.80;;;;;;5012377;28;20196;-86
2022/07/15 06:35:24;;;;;;;5.88;5.25;;;20.90;53.40;;;;;;5008799;28;20647;-86
2022/07/15 06:37:51;;;;;;;6.35;5.03;;;20.70;53.10;;;;;;5004745;28;20186;-86
2022/07/15 06:40:17;;;;;;;5.88;5.35;;;20.70;53.90;;;;;;5003238;28;20182;-87
2022/07/15 06:42:43;;;;;;;5.35;4.88;;;20.90;53.40;;;;;;5011477;28;20193;-86
2022/07/15 06:45:10;;;;;;;6.45;5.05;;;20.80;51.50;;;;;;5001036;28;20209;-85
2022/07/15 06:47:36;;;;;;;5.75;4.60;;;20.70;52.10;;;;;;5011172;28;20248;-85
2022/07/15 06:50:01;;;;;;;5.53;5.00;;;20.80;51.40;;;;;;5031774;28;20233;-84
2022/07/15 06:52:27;;;;;;;5.25;4.75;;;20.80;51.30;;;;;;4996831;28;20197;-85
2022/07/15 06:54:53;;;;;;;7.95;7.15;;;20.80;51.30;;;;;;5005206;28;20185;-85
2022/07/15 06:57:19;;;;;;;6.97;4.75;;;20.80;51.60;;;;;;4997397;28;20659;-85
2022/07/15 06:59:44;;;;;;;6.03;4.63;;;21.00;51.90;;;;;;5006106;28;20648;-85
2022/07/15 07:02:10;;;;;;;10.40;9.52;;;21.20;50.50;;;;;;4994237;28;20264;-85
2022/07/15 07:04:36;;;;;;;5.57;4.50;;;21.30;49.80;;;;;;5005087;28;20183;-85
2022/07/15 07:07:01;;;;;;;5.05;4.65;;;21.30;49.80;;;;;;5010861;28;20189;-87
2022/07/15 07:09:27;;;;;;;4.32;4.03;;;21.40;48.90;;;;;;5004198;28;20593;-84
2022/07/15 07:11:53;;;;;;;4.68;4.28;;;21.60;48.70;;;;;;5013228;28;20199;-85
2022/07/15 07:14:19;;;;;;;5.28;4.72;;;21.70;48.20;;;;;;5010534;28;20592;-85
2022/07/15 07:16:45;;;;;;;5.18;4.68;;;21.70;47.90;;;;;;5008645;28;20231;-85
2022/07/15 07:19:13;;;;;;;5.00;4.47;;;21.70;47.60;;;;;;5005851;28;20191;-85
2022/07/15 07:21:39;;;;;;;6.13;4.70;;;21.60;47.80;;;;;;5004828;28;20193;-85
2022/07/15 07:24:08;;;;;;;5.00;4.50;;;21.40;48.40;;;;;;5005033;28;20186;-85
2022/07/15 07:26:35;;;;;;;5.40;4.15;;;21.50;49.70;;;;;;4999739;28;20256;-86
2022/07/15 07:29:00;;;;;;;5.50;4.93;;;21.60;48.80;;;;;;5014850;28;20215;-86
2022/07/15 07:31:26;;;;;;;4.88;4.57;;;21.70;47.60;;;;;;5011447;28;20194;-85
2022/07/15 07:33:57;;;;;;;5.10;4.57;;;21.80;48.40;;;;;;5000648;28;20285;-85
2022/07/15 07:36:23;;;;;;;6.25;4.53;;;21.80;47.60;;;;;;5004361;28;20210;-86
2022/07/15 07:38:49;;;;;;;5.00;4.60;;;21.70;47.90;;;;;;4987579;28;20218;-86
2022/07/15 07:41:15;;;;;;;5.20;4.70;;;21.80;48.00;;;;;;5012169;28;20183;-86
2022/07/15 07:43:41;;;;;;;6.10;4.55;;;22.00;47.20;;;;;;5005286;28;20210;-86
2022/07/15 07:46:07;;;;;;;5.00;4.60;;;22.00;46.70;;;;;;5012076;28;20402;-86
2022/07/15 07:48:33;;;;;;;5.00;4.57;;;21.90;46.70;;;;;;5008747;28;20221;-85
2022/07/15 07:50:59;;;;;;;6.40;4.50;;;21.90;47.60;;;;;;4968825;28;1097312;-86
2022/07/15 07:53:25;;;;;;;5.03;4.50;;;21.90;47.30;;;;;;5007829;28;20191;-85
2022/07/15 07:55:51;;;;;;;4.22;3.92;;;21.90;47.80;;;;;;5008142;28;20221;-85
2022/07/15 07:58:19;;;;;;;4.85;4.43;;;22.10;47.20;;;;;;5010815;28;20187;-87
2022/07/15 08:00:45;;;;;;;5.97;4.65;;;22.20;46.20;;;;;;5010949;28;20182;-86
2022/07/15 08:03:11;;;;;;;4.68;4.38;;;22.40;45.70;;;;;;5012500;28;20262;-85
2022/07/15 08:05:38;;;;;;;6.32;4.78;;;22.50;45.40;;;;;;4993586;28;20216;-86
2022/07/15 08:08:08;;;;;;;4.82;4.43;;;22.70;43.90;;;;;;5026937;28;20181;-84
2022/07/15 08:10:33;;;;;;;5.38;4.97;;;22.80;44.10;;;;;;5031269;28;20181;-84
2022/07/15 08:13:00;;;;;;;5.05;4.55;;;22.90;43.40;;;;;;5030399;28;20239;-85
2022/07/15 08:15:27;;;;;;;4.93;4.40;;;22.70;43.10;;;;;;5016967;28;20225;-85
2022/07/15 08:17:53;;;;;;;5.20;4.43;;;22.70;44.00;;;;;;5029920;28;20191;-86
2022/07/15 08:20:18;;;;;;;4.95;4.35;;;22.60;44.60;;;;;;5003075;28;20193;-86
2022/07/15 08:22:44;;;;;;;4.72;4.30;;;22.70;43.80;;;;;;5012444;28;20200;-86
2022/07/15 08:25:10;;;;;;;5.40;4.90;;;22.90;43.60;;;;;;4998047;28;20245;-86
2022/07/15 08:27:35;;;;;;;5.75;4.47;;;23.00;43.30;;;;;;5010811;28;20191;-86
2022/07/15 08:30:01;;;;;;;4.88;4.47;;;23.10;44.30;;;;;;5015544;28;20275;-87
2022/07/15 08:32:27;;;;;;;4.82;4.45;;;23.30;44.40;;;;;;5014152;28;20205;-86
2022/07/15 08:34:52;;;;;;;5.20;4.45;;;23.40;43.10;;;;;;4994014;28;20261;-86
2022/07/15 08:37:18;;;;;;;5.10;4.70;;;23.40;42.70;;;;;;5011314;28;20557;-85
2022/07/15 08:39:44;;;;;;;6.63;4.93;;;23.60;42.20;;;;;;5010219;28;20202;-86
2022/07/15 08:42:10;;;;;;;6.50;4.88;;;23.50;42.60;;;;;;5003387;28;20664;-86
2022/07/15 08:44:36;;;;;;;4.72;4.30;;;23.70;41.30;;;;;;5014974;28;20216;-86
2022/07/15 08:47:05;;;;;;;4.93;4.53;;;23.70;41.80;;;;;;5009626;28;20212;-86
2022/07/15 08:49:33;;;;;;;5.28;4.57;;;23.80;42.70;;;;;;5018372;28;20186;-87
2022/07/15 08:52:00;;;;;;;5.75;4.47;;;24.00;41.10;;;;;;5015395;28;20722;-87
2022/07/15 08:54:28;;;;;;;5.38;4.47;;;23.90;40.40;;;;;;5008732;28;20194;-87
2022/07/15 08:56:54;;;;;;;5.03;4.60;;;24.00;40.20;;;;;;5014769;28;20213;-87
2022/07/15 08:59:20;;;;;;;5.18;4.75;;;24.20;40.10;;;;;;5013780;28;20190;-86
2022/07/15 09:01:48;;;;;;;5.07;4.68;;;24.10;40.00;;;;;;5001174;28;20212;-86
2022/07/15 09:04:16;;;;;;;6.70;5.25;;;24.00;39.00;;;;;;5010843;28;20694;-87
2022/07/15 09:06:44;;;;;;;5.43;4.78;;;24.20;39.10;;;;;;5001497;28;20297;-86
2022/07/15 09:09:26;;;;;;;5.13;4.35;;;24.10;39.50;;;;;;4998143;28;20187;-86
2022/07/15 09:12:03;;;;;;;4.78;4.43;;;24.00;39.30;;;;;;5010682;28;20324;-87
2022/07/15 09:14:30;;;;;;;5.78;4.75;;;24.40;38.60;;;;;;5018378;28;20189;-86
2022/07/15 09:17:23;;;;;;;4.95;4.55;;;24.60;37.80;;;;;;4999462;28;20221;-87
2022/07/15 09:20:09;;;;;;;5.25;4.75;;;24.70;38.10;;;;;;5011112;28;20571;-86
2022/07/15 09:22:50;;;;;;;5.65;4.50;;;24.90;38.20;;;;;;4983530;28;20185;-86
2022/07/15 09:25:17;;;;;;;5.35;4.90;;;24.90;37.40;;;;;;4998171;28;20896;-86
2022/07/15 09:27:44;;;;;;;4.60;4.30;;;24.90;36.20;;;;;;4997679;28;20179;-87
2022/07/15 09:36:03;;;;;;;5.78;5.13;;;25.40;36.30;;;;;;5017542;28;20221;-88
2022/07/15 09:38:53;;;;;;;4.50;4.10;;;25.30;35.50;;;;;;5032382;28;20255;-86
2022/07/15 09:41:42;;;;;;;4.82;4.35;;;25.50;35.90;;;;;;5010613;28;20193;-85
2022/07/15 09:44:17;;;;;;;5.57;4.95;;;26.00;35.00;;;;;;4996470;28;20182;-85
2022/07/15 09:46:56;;;;;;;4.70;4.20;;;26.10;34.90;;;;;;5001565;28;20288;-85
2022/07/15 09:49:24;;;;;;;5.07;4.15;;;25.80;34.00;;;;;;4990652;28;20196;-86
2022/07/15 09:51:57;;;;;;;6.90;4.18;;;25.90;33.70;;;;;;5001781;28;20561;-85
2022/07/15 09:54:24;;;;;;;4.97;4.32;;;26.10;33.70;;;;;;4994837;28;20234;-85
2022/07/15 09:56:51;;;;;;;4.40;4.00;;;26.40;32.70;;;;;;4999793;28;20797;-86
2022/07/15 09:59:17;;;;;;;10.57;4.45;;;26.40;32.30;;;;;;5002820;28;20255;-86
2022/07/15 10:01:43;;;;;;;4.20;3.90;;;26.40;32.20;;;;;;5005261;28;20181;-86
2022/07/15 10:04:10;;;;;;;4.28;3.90;;;26.10;32.70;;;;;;5007198;28;20190;-86
2022/07/15 10:06:38;;;;;;;4.97;4.20;;;26.30;33.00;;;;;;5005752;28;20546;-86
2022/07/15 10:09:06;;;;;;;4.65;4.15;;;26.40;33.60;;;;;;5016424;28;20194;-85
2022/07/15 10:11:43;;;;;;;4.68;4.22;;;26.70;33.60;;;;;;5019945;28;20194;-86
2022/07/15 10:14:30;;;;;;;4.50;3.88;;;26.90;33.50;;;;;;5008051;28;20178;-86
2022/07/15 10:17:30;;;;;;;4.85;4.45;;;26.90;33.10;;;;;;5005881;28;20229;-86
2022/07/15 10:19:56;;;;;;;7.55;5.35;;;27.00;33.40;;;;;;5011323;28;20378;-85
2022/07/15 10:23:23;;;;;;;4.95;4.53;;;27.10;34.10;;;;;;4996822;28;20671;-86
2022/07/15 10:26:24;;;;;;;4.40;3.97;;;27.20;32.90;;;;;;4927500;29;20722;-87
2022/07/15 10:29:07;;;;;;;4.80;4.43;;;27.60;31.70;;;;;;4910790;29;20209;-86
2022/07/15 10:31:34;;;;;;;6.30;4.75;;;27.10;31.80;;;;;;4996304;28;20564;-86
2022/07/15 10:34:02;;;;;;;6.10;4.18;;;27.20;31.90;;;;;;5010397;28;20190;-86
2022/07/15 10:36:46;;;;;;;5.68;4.70;;;27.30;31.50;;;;;;5014380;28;20237;-86
2022/07/15 10:39:17;;;;;;;4.82;4.43;;;27.60;32.00;;;;;;5014919;28;20182;-86
2022/07/15 10:42:11;;;;;;;5.18;4.25;;;27.90;31.80;;;;;;5015273;28;20260;-86
2022/07/15 10:45:02;;;;;;;5.65;4.75;;;27.80;30.40;;;;;;4969555;28;20202;-87
2022/07/15 10:47:28;;;;;;;5.60;5.00;;;27.90;31.00;;;;;;5010576;28;20182;-87
2022/07/15 10:49:54;;;;;;;4.90;4.50;;;28.10;30.80;;;;;;5016302;28;20174;-86
2022/07/15 10:52:23;;;;;;;5.68;5.20;;;28.30;30.40;;;;;;5015550;28;20373;-86
2022/07/15 10:54:55;;;;;;;5.22;4.78;;;28.30;30.00;;;;;;5015366;28;20178;-86
2022/07/15 10:57:41;;;;;;;5.10;4.70;;;28.10;30.50;;;;;;5017928;28;20201;-86
2022/07/15 11:00:31;;;;;;;4.60;4.28;;;27.80;30.00;;;;;;5015467;28;20196;-85
2022/07/15 11:03:05;;;;;;;4.93;4.43;;;28.00;30.00;;;;;;5017324;28;20720;-86
2022/07/15 11:05:31;;;;;;;4.82;4.30;;;28.30;29.90;;;;;;4999623;28;20210;-85
2022/07/15 11:07:57;;;;;;;5.07;4.68;;;28.30;29.90;;;;;;4978880;28;20274;-86
2022/07/15 11:10:23;;;;;;;5.60;4.88;;;28.70;30.00;;;;;;4998731;28;20212;-87
2022/07/15 11:12:49;;;;;;;5.50;5.00;;;29.20;29.80;;;;;;5008846;28;20189;-86
2022/07/15 11:15:16;;;;;;;4.88;4.57;;;29.30;28.90;;;;;;5019899;28;20197;-86
2022/07/15 11:17:51;;;;;;;4.30;4.07;;;29.30;29.10;;;;;;4999505;28;20205;-86
2022/07/15 11:20:19;;;;;;;4.80;4.40;;;29.40;28.80;;;;;;5009614;28;20184;-86
2022/07/15 11:22:50;;;;;;;5.10;4.53;;;29.60;27.60;;;;;;5012880;28;20241;-85
2022/07/15 11:25:22;;;;;;;5.75;5.15;;;29.60;28.40;;;;;;5013730;28;20212;-87
2022/07/15 11:28:06;;;;;;;4.80;4.55;;;29.80;28.10;;;;;;5006573;28;20169;-86
2022/07/15 11:30:54;;;;;;;4.82;4.43;;;29.60;28.20;;;;;;5009793;28;20179;-86
2022/07/15 11:33:25;;;;;;;5.13;4.70;;;29.70;28.40;;;;;;5012300;28;20260;-87
2022/07/15 11:35:56;;;;;;;5.53;5.03;;;29.40;27.50;;;;;;5005855;28;20218;-85
2022/07/15 11:38:27;;;;;;;5.10;4.70;;;29.70;27.80;;;;;;4985048;28;20213;-85
2022/07/15 11:46:29;;;;;;;6.45;4.90;;;30.20;27.40;;;;;;4985973;28;20260;-86
2022/07/15 11:48:55;;;;;;;5.45;4.35;;;30.30;27.50;;;;;;5012494;28;20588;-85
2022/07/15 11:51:26;;;;;;;4.60;4.30;;;29.80;27.50;;;;;;5004443;28;20252;-86
2022/07/15 11:53:52;;;;;;;4.88;4.57;;;30.10;27.40;;;;;;5011627;28;20190;-84
2022/07/15 11:56:17;;;;;;;5.65;5.10;;;30.50;27.20;;;;;;5038714;28;20217;-84
2022/07/15 11:58:49;;;;;;;5.20;4.72;;;30.60;27.00;;;;;;5011113;28;20338;-84
2022/07/15 12:01:19;;;;;;;4.88;4.45;;;30.30;27.50;;;;;;5009465;28;20191;-85
2022/07/15 12:03:51;;;;;;;4.60;4.22;;;29.90;27.90;;;;;;5013337;28;20266;-86
2022/07/15 12:06:25;;;;;;;4.50;4.20;;;30.00;27.60;;;;;;5010375;28;20285;-85
2022/07/15 12:08:52;;;;;;;5.03;4.55;;;30.10;27.40;;;;;;5017874;28;20185;-85
2022/07/15 12:11:20;;;;;;;4.55;4.25;;;29.80;27.90;;;;;;5017417;28;20190;-85
2022/07/15 12:13:54;;;;;;;5.32;4.90;;;29.90;28.30;;;;;;5016949;28;20221;-85
2022/07/15 12:16:44;;;;;;;5.15;4.68;;;30.10;27.90;;;;;;5012885;28;20230;-86
2022/07/15 12:19:13;;;;;;;5.35;4.85;;;30.40;27.70;;;;;;5021170;28;20185;-86
2022/07/15 12:21:41;;;;;;;5.32;4.82;;;30.80;27.10;;;;;;5011509;28;20174;-86
2022/07/15 12:24:15;;;;;;;5.38;4.97;;;30.80;26.90;;;;;;5013855;28;20419;-85
2022/07/15 12:27:02;;;;;;;5.13;4.80;;;31.30;27.00;;;;;;5027209;28;20196;-83
2022/07/15 12:29:30;;;;;;;4.68;4.38;;;31.10;26.80;;;;;;5028481;28;20687;-85
2022/07/15 12:32:07;;;;;;;4.90;4.60;;;30.80;26.90;;;;;;5009706;28;20204;-85
2022/07/15 12:34:57;;;;;;;4.82;4.43;;;30.80;26.70;;;;;;4991066;28;20200;-86
2022/07/15 12:37:25;;;;;;;5.53;5.00;;;31.30;26.50;;;;;;5004058;28;20299;-85
2022/07/15 12:39:53;;;;;;;4.97;4.55;;;31.50;26.60;;;;;;5010602;28;20182;-85
2022/07/15 12:42:19;;;;;;;5.35;4.90;;;31.40;26.50;;;;;;5011086;28;20711;-86
2022/07/15 12:44:44;;;;;;;5.53;5.10;;;31.50;26.00;;;;;;5010688;28;20198;-86
2022/07/15 12:47:10;;;;;;;5.68;5.15;;;31.70;26.70;;;;;;5008692;28;20567;-85
2022/07/15 12:49:40;;;;;;;5.53;5.13;;;31.60;25.90;;;;;;5017097;28;20265;-86
2022/07/15 12:52:13;;;;;;;5.30;4.80;;;32.20;26.00;;;;;;5008500;28;20201;-86
2022/07/15 12:54:38;;;;;;;6.18;5.55;;;31.60;26.20;;;;;;5010271;28;20261;-85
2022/07/15 12:57:04;;;;;;;7.15;5.38;;;31.60;26.10;;;;;;5011426;28;20244;-85
2022/07/15 12:59:30;;;;;;;5.63;5.22;;;31.60;26.30;;;;;;4972282;28;20194;-85
2022/07/15 13:02:03;;;;;;;5.38;4.88;;;31.60;26.20;;;;;;5013473;28;20201;-86
2022/07/15 13:04:28;;;;;;;5.50;5.10;;;32.00;26.10;;;;;;5011533;28;20276;-85
2022/07/15 13:06:54;;;;;;;5.25;4.90;;;31.70;26.20;;;;;;4998729;28;20248;-86
2022/07/15 13:09:20;;;;;;;7.38;5.60;;;32.40;25.80;;;;;;5002135;28;20265;-85